sensor_id;sensor_type;location;lat;lon;timestamp;P1;durP1;ratioP1;P2;durP2;ratioP2
17510;SDS011;8873;48.818;9.422;2023-07-29T00:00:13;4.28;;;3.42;;
17510;SDS011;8873;48.818;9.422;2023-07-29T00:02:41;7.03;;;3.60;;
17510;SDS011;8873;48.818;9.422;2023-07-29T00:05:08;5.18;;;3.63;;
17510;SDS011;8873;48.818;9.422;2023-07-29T00:07:36;5.47;;;3.78;;
17510;SDS011;8873;48.818;9.422;2023-07-29T00:10:04;5.68;;;3.28;;
17510;SDS011;8873;48.818;9.422;2023-07-29T00:12:32;6.57;;;3.75;;
17510;SDS011;8873;48.818;9.422;2023-07-29T00:14:59;5.13;;;3.75;;
17510;SDS011;8873;48.818;9.422;2023-07-29T00:17:28;10.45;;;3.83;;
17510;SDS011;8873;48.818;9.422;2023-07-29T00:19:56;6.28;;;3.45;;
17510;SDS011;8873;48.818;9.422;2023-07-29T00:22:23;8.43;;;3.47;;
17510;SDS011;8873;48.818;9.422;2023-07-29T00:24:52;4.50;;;2.92;;
17510;SDS011;8873;48.818;9.422;2023-07-29T00:27:21;3.40;;;2.70;;
17510;SDS011;8873;48.818;9.422;2023-07-29T00:29:48;5.38;;;2.50;;
17510;SDS011;8873;48.818;9.422;2023-07-29T00:32:16;4.85;;;2.50;;
17510;SDS011;8873;48.818;9.422;2023-07-29T00:34:45;3.67;;;3.00;;
17510;SDS011;8873;48.818;9.422;2023-07-29T00:37:13;3.20;;;2.85;;
17510;SDS011;8873;48.818;9.422;2023-07-29T00:39:41;5.15;;;2.95;;
17510;SDS011;8873;48.818;9.422;2023-07-29T00:42:08;6.95;;;3.50;;
17510;SDS011;8873;48.818;9.422;2023-07-29T00:44:36;7.30;;;4.35;;
17510;SDS011;8873;48.818;9.422;2023-07-29T00:47:04;6.38;;;5.00;;
17510;SDS011;8873;48.818;9.422;2023-07-29T00:49:32;7.40;;;4.40;;
17510;SDS011;8873;48.818;9.422;2023-07-29T00:52:01;8.93;;;5.00;;
17510;SDS011;8873;48.818;9.422;2023-07-29T00:54:29;8.30;;;4.88;;
17510;SDS011;8873;48.818;9.422;2023-07-29T00:56:56;7.72;;;4.53;;
17510;SDS011;8873;48.818;9.422;2023-07-29T00:59:24;8.95;;;4.72;;
17510;SDS011;8873;48.818;9.422;2023-07-29T01:01:54;6.22;;;3.97;;
17510;SDS011;8873;48.818;9.422;2023-07-29T01:04:22;6.10;;;3.80;;
17510;SDS011;8873;48.818;9.422;2023-07-29T01:06:50;5.75;;;3.47;;
17510;SDS011;8873;48.818;9.422;2023-07-29T01:09:24;5.88;;;3.97;;
17510;SDS011;8873;48.818;9.422;2023-07-29T01:11:55;7.32;;;4.15;;
17510;SDS011;8873;48.818;9.422;2023-07-29T01:14:26;7.15;;;3.80;;
17510;SDS011;8873;48.818;9.422;2023-07-29T01:16:57;8.48;;;4.38;;
17510;SDS011;8873;48.818;9.422;2023-07-29T01:19:34;7.68;;;4.53;;
17510;SDS011;8873;48.818;9.422;2023-07-29T01:22:08;9.23;;;4.50;;
17510;SDS011;8873;48.818;9.422;2023-07-29T01:24:38;4.75;;;3.67;;
17510;SDS011;8873;48.818;9.422;2023-07-29T01:27:06;6.07;;;3.85;;
17510;SDS011;8873;48.818;9.422;2023-07-29T01:29:33;6.20;;;3.97;;
17510;SDS011;8873;48.818;9.422;2023-07-29T01:32:11;5.25;;;3.78;;
17510;SDS011;8873;48.818;9.422;2023-07-29T01:34:44;5.10;;;4.03;;
17510;SDS011;8873;48.818;9.422;2023-07-29T01:37:13;5.13;;;4.00;;
17510;SDS011;8873;48.818;9.422;2023-07-29T01:39:44;6.10;;;4.13;;
17510;SDS011;8873;48.818;9.422;2023-07-29T01:42:12;5.78;;;4.28;;
17510;SDS011;8873;48.818;9.422;2023-07-29T01:44:40;7.07;;;4.95;;
17510;SDS011;8873;48.818;9.422;2023-07-29T01:47:09;11.15;;;5.05;;
17510;SDS011;8873;48.818;9.422;2023-07-29T01:49:37;8.07;;;5.10;;
17510;SDS011;8873;48.818;9.422;2023-07-29T01:52:05;10.48;;;4.88;;
17510;SDS011;8873;48.818;9.422;2023-07-29T01:54:33;6.80;;;4.57;;
17510;SDS011;8873;48.818;9.422;2023-07-29T01:57:02;7.45;;;4.57;;
17510;SDS011;8873;48.818;9.422;2023-07-29T01:59:30;8.00;;;4.82;;
17510;SDS011;8873;48.818;9.422;2023-07-29T02:01:57;7.25;;;3.92;;
17510;SDS011;8873;48.818;9.422;2023-07-29T02:04:25;7.28;;;4.47;;
17510;SDS011;8873;48.818;9.422;2023-07-29T02:06:53;9.18;;;4.60;;
17510;SDS011;8873;48.818;9.422;2023-07-29T02:09:21;6.32;;;4.65;;
17510;SDS011;8873;48.818;9.422;2023-07-29T02:11:49;7.05;;;4.78;;
17510;SDS011;8873;48.818;9.422;2023-07-29T02:14:17;8.45;;;4.50;;
17510;SDS011;8873;48.818;9.422;2023-07-29T02:16:45;8.00;;;4.75;;
17510;SDS011;8873;48.818;9.422;2023-07-29T02:19:13;8.68;;;4.63;;
17510;SDS011;8873;48.818;9.422;2023-07-29T02:21:40;6.00;;;3.95;;
17510;SDS011;8873;48.818;9.422;2023-07-29T02:24:08;9.38;;;4.72;;
17510;SDS011;8873;48.818;9.422;2023-07-29T02:26:35;6.63;;;3.72;;
17510;SDS011;8873;48.818;9.422;2023-07-29T02:29:03;7.05;;;4.32;;
17510;SDS011;8873;48.818;9.422;2023-07-29T02:31:32;7.68;;;4.55;;
17510;SDS011;8873;48.818;9.422;2023-07-29T02:34:01;6.13;;;4.45;;
17510;SDS011;8873;48.818;9.422;2023-07-29T02:36:28;7.85;;;4.35;;
17510;SDS011;8873;48.818;9.422;2023-07-29T02:38:56;5.53;;;4.05;;
17510;SDS011;8873;48.818;9.422;2023-07-29T02:41:23;6.43;;;4.20;;
17510;SDS011;8873;48.818;9.422;2023-07-29T02:43:51;7.40;;;4.50;;
17510;SDS011;8873;48.818;9.422;2023-07-29T02:46:19;7.63;;;4.43;;
17510;SDS011;8873;48.818;9.422;2023-07-29T02:48:48;6.13;;;4.20;;
17510;SDS011;8873;48.818;9.422;2023-07-29T02:51:15;5.97;;;4.38;;
17510;SDS011;8873;48.818;9.422;2023-07-29T02:53:43;6.88;;;4.55;;
17510;SDS011;8873;48.818;9.422;2023-07-29T02:56:11;6.13;;;4.20;;
17510;SDS011;8873;48.818;9.422;2023-07-29T02:58:38;7.88;;;4.40;;
17510;SDS011;8873;48.818;9.422;2023-07-29T03:01:06;7.25;;;4.35;;
17510;SDS011;8873;48.818;9.422;2023-07-29T03:03:34;6.88;;;3.85;;
17510;SDS011;8873;48.818;9.422;2023-07-29T03:06:04;8.43;;;4.70;;
17510;SDS011;8873;48.818;9.422;2023-07-29T03:08:31;6.18;;;4.10;;
17510;SDS011;8873;48.818;9.422;2023-07-29T03:11:04;6.07;;;4.00;;
17510;SDS011;8873;48.818;9.422;2023-07-29T03:13:32;7.97;;;4.35;;
17510;SDS011;8873;48.818;9.422;2023-07-29T03:16:04;6.40;;;4.28;;
17510;SDS011;8873;48.818;9.422;2023-07-29T03:18:31;7.03;;;4.72;;
17510;SDS011;8873;48.818;9.422;2023-07-29T03:20:59;6.03;;;4.15;;
17510;SDS011;8873;48.818;9.422;2023-07-29T03:23:28;5.97;;;4.00;;
17510;SDS011;8873;48.818;9.422;2023-07-29T03:25:56;5.22;;;3.90;;
17510;SDS011;8873;48.818;9.422;2023-07-29T03:28:25;7.97;;;3.55;;
17510;SDS011;8873;48.818;9.422;2023-07-29T03:30:51;8.18;;;4.20;;
17510;SDS011;8873;48.818;9.422;2023-07-29T03:33:19;6.35;;;4.18;;
17510;SDS011;8873;48.818;9.422;2023-07-29T03:35:47;6.32;;;3.70;;
17510;SDS011;8873;48.818;9.422;2023-07-29T03:38:14;6.63;;;4.00;;
17510;SDS011;8873;48.818;9.422;2023-07-29T03:40:43;8.82;;;4.30;;
17510;SDS011;8873;48.818;9.422;2023-07-29T03:43:11;4.18;;;3.55;;
17510;SDS011;8873;48.818;9.422;2023-07-29T03:45:39;8.13;;;4.40;;
17510;SDS011;8873;48.818;9.422;2023-07-29T03:48:07;6.85;;;3.95;;
17510;SDS011;8873;48.818;9.422;2023-07-29T03:50:35;7.32;;;4.22;;
17510;SDS011;8873;48.818;9.422;2023-07-29T03:53:03;6.30;;;4.28;;
17510;SDS011;8873;48.818;9.422;2023-07-29T03:55:31;6.60;;;4.30;;
17510;SDS011;8873;48.818;9.422;2023-07-29T03:58:00;6.97;;;4.63;;
17510;SDS011;8873;48.818;9.422;2023-07-29T04:00:28;6.45;;;3.92;;
17510;SDS011;8873;48.818;9.422;2023-07-29T04:02:55;6.53;;;3.95;;
17510;SDS011;8873;48.818;9.422;2023-07-29T04:05:23;6.63;;;3.97;;
17510;SDS011;8873;48.818;9.422;2023-07-29T04:07:51;6.70;;;4.28;;
17510;SDS011;8873;48.818;9.422;2023-07-29T04:10:20;5.60;;;3.88;;
17510;SDS011;8873;48.818;9.422;2023-07-29T04:12:47;4.07;;;3.60;;
17510;SDS011;8873;48.818;9.422;2023-07-29T04:15:16;5.45;;;4.00;;
17510;SDS011;8873;48.818;9.422;2023-07-29T04:17:44;5.00;;;3.55;;
17510;SDS011;8873;48.818;9.422;2023-07-29T04:20:11;6.10;;;3.72;;
17510;SDS011;8873;48.818;9.422;2023-07-29T04:22:39;10.43;;;4.72;;
17510;SDS011;8873;48.818;9.422;2023-07-29T04:25:07;11.45;;;4.25;;
17510;SDS011;8873;48.818;9.422;2023-07-29T04:27:34;5.68;;;3.88;;
17510;SDS011;8873;48.818;9.422;2023-07-29T04:30:02;5.35;;;3.60;;
17510;SDS011;8873;48.818;9.422;2023-07-29T04:32:31;4.45;;;3.42;;
17510;SDS011;8873;48.818;9.422;2023-07-29T04:34:59;5.03;;;3.20;;
17510;SDS011;8873;48.818;9.422;2023-07-29T04:37:28;5.95;;;3.38;;
17510;SDS011;8873;48.818;9.422;2023-07-29T04:39:55;4.10;;;3.15;;
17510;SDS011;8873;48.818;9.422;2023-07-29T04:42:23;5.00;;;3.42;;
17510;SDS011;8873;48.818;9.422;2023-07-29T04:44:50;6.35;;;3.35;;
17510;SDS011;8873;48.818;9.422;2023-07-29T04:47:18;6.93;;;3.60;;
17510;SDS011;8873;48.818;9.422;2023-07-29T04:49:48;5.20;;;3.38;;
17510;SDS011;8873;48.818;9.422;2023-07-29T04:52:16;4.85;;;3.10;;
17510;SDS011;8873;48.818;9.422;2023-07-29T04:54:46;4.60;;;3.17;;
17510;SDS011;8873;48.818;9.422;2023-07-29T04:57:14;4.70;;;3.15;;
17510;SDS011;8873;48.818;9.422;2023-07-29T04:59:42;4.60;;;3.25;;
17510;SDS011;8873;48.818;9.422;2023-07-29T05:02:10;3.30;;;2.92;;
17510;SDS011;8873;48.818;9.422;2023-07-29T05:04:37;5.82;;;3.78;;
17510;SDS011;8873;48.818;9.422;2023-07-29T05:07:07;5.20;;;3.33;;
17510;SDS011;8873;48.818;9.422;2023-07-29T05:09:35;5.15;;;3.38;;
17510;SDS011;8873;48.818;9.422;2023-07-29T05:12:04;4.15;;;3.38;;
17510;SDS011;8873;48.818;9.422;2023-07-29T05:14:32;4.38;;;3.40;;
17510;SDS011;8873;48.818;9.422;2023-07-29T05:17:00;5.50;;;3.30;;
17510;SDS011;8873;48.818;9.422;2023-07-29T05:19:28;6.88;;;3.58;;
17510;SDS011;8873;48.818;9.422;2023-07-29T05:21:55;8.82;;;3.40;;
17510;SDS011;8873;48.818;9.422;2023-07-29T05:24:24;4.00;;;3.60;;
17510;SDS011;8873;48.818;9.422;2023-07-29T05:26:52;4.20;;;3.60;;
17510;SDS011;8873;48.818;9.422;2023-07-29T05:29:20;4.68;;;3.70;;
17510;SDS011;8873;48.818;9.422;2023-07-29T05:31:47;3.78;;;3.20;;
17510;SDS011;8873;48.818;9.422;2023-07-29T05:34:15;4.60;;;3.45;;
17510;SDS011;8873;48.818;9.422;2023-07-29T05:36:42;5.75;;;3.75;;
17510;SDS011;8873;48.818;9.422;2023-07-29T05:39:10;7.75;;;4.30;;
17510;SDS011;8873;48.818;9.422;2023-07-29T05:41:39;7.13;;;3.97;;
17510;SDS011;8873;48.818;9.422;2023-07-29T05:44:07;8.80;;;4.50;;
17510;SDS011;8873;48.818;9.422;2023-07-29T05:46:37;6.65;;;4.13;;
17510;SDS011;8873;48.818;9.422;2023-07-29T05:49:05;7.88;;;3.88;;
17510;SDS011;8873;48.818;9.422;2023-07-29T05:51:32;7.35;;;3.97;;
17510;SDS011;8873;48.818;9.422;2023-07-29T05:54:00;5.30;;;3.97;;
17510;SDS011;8873;48.818;9.422;2023-07-29T05:56:27;5.20;;;3.33;;
17510;SDS011;8873;48.818;9.422;2023-07-29T05:58:57;5.22;;;3.50;;
17510;SDS011;8873;48.818;9.422;2023-07-29T06:01:25;6.88;;;3.80;;
17510;SDS011;8873;48.818;9.422;2023-07-29T06:03:53;6.00;;;3.70;;
17510;SDS011;8873;48.818;9.422;2023-07-29T06:06:20;5.93;;;3.70;;
17510;SDS011;8873;48.818;9.422;2023-07-29T06:08:49;6.65;;;3.78;;
17510;SDS011;8873;48.818;9.422;2023-07-29T06:11:17;6.30;;;3.55;;
17510;SDS011;8873;48.818;9.422;2023-07-29T06:13:45;5.85;;;3.28;;
17510;SDS011;8873;48.818;9.422;2023-07-29T06:16:14;4.47;;;2.78;;
17510;SDS011;8873;48.818;9.422;2023-07-29T06:18:42;2.92;;;2.70;;
17510;SDS011;8873;48.818;9.422;2023-07-29T06:21:10;3.05;;;2.50;;
17510;SDS011;8873;48.818;9.422;2023-07-29T06:23:43;2.38;;;2.13;;
17510;SDS011;8873;48.818;9.422;2023-07-29T06:26:13;6.03;;;3.95;;
17510;SDS011;8873;48.818;9.422;2023-07-29T06:28:41;6.95;;;3.67;;
17510;SDS011;8873;48.818;9.422;2023-07-29T06:31:08;4.78;;;3.58;;
17510;SDS011;8873;48.818;9.422;2023-07-29T06:33:37;7.18;;;3.15;;
17510;SDS011;8873;48.818;9.422;2023-07-29T06:36:05;2.45;;;2.30;;
17510;SDS011;8873;48.818;9.422;2023-07-29T06:38:33;2.70;;;2.50;;
17510;SDS011;8873;48.818;9.422;2023-07-29T06:41:00;3.70;;;2.50;;
17510;SDS011;8873;48.818;9.422;2023-07-29T06:43:28;2.67;;;2.05;;
17510;SDS011;8873;48.818;9.422;2023-07-29T06:45:55;4.63;;;2.38;;
17510;SDS011;8873;48.818;9.422;2023-07-29T06:48:25;5.30;;;2.50;;
17510;SDS011;8873;48.818;9.422;2023-07-29T06:50:54;9.63;;;2.38;;
17510;SDS011;8873;48.818;9.422;2023-07-29T06:53:26;3.95;;;2.53;;
17510;SDS011;8873;48.818;9.422;2023-07-29T06:55:54;2.83;;;2.35;;
17510;SDS011;8873;48.818;9.422;2023-07-29T06:58:22;5.13;;;2.65;;
17510;SDS011;8873;48.818;9.422;2023-07-29T07:00:49;2.58;;;2.38;;
17510;SDS011;8873;48.818;9.422;2023-07-29T07:03:17;2.60;;;2.28;;
17510;SDS011;8873;48.818;9.422;2023-07-29T07:05:44;2.72;;;2.20;;
17510;SDS011;8873;48.818;9.422;2023-07-29T07:08:13;2.95;;;2.75;;
17510;SDS011;8873;48.818;9.422;2023-07-29T07:10:41;2.50;;;2.30;;
17510;SDS011;8873;48.818;9.422;2023-07-29T07:13:08;4.00;;;2.83;;
17510;SDS011;8873;48.818;9.422;2023-07-29T07:15:36;5.57;;;2.80;;
17510;SDS011;8873;48.818;9.422;2023-07-29T07:18:04;4.53;;;2.95;;
17510;SDS011;8873;48.818;9.422;2023-07-29T07:20:31;2.92;;;2.60;;
17510;SDS011;8873;48.818;9.422;2023-07-29T07:22:59;5.80;;;2.63;;
17510;SDS011;8873;48.818;9.422;2023-07-29T07:25:28;5.15;;;3.10;;
17510;SDS011;8873;48.818;9.422;2023-07-29T07:27:56;3.15;;;2.60;;
17510;SDS011;8873;48.818;9.422;2023-07-29T07:30:23;2.90;;;2.53;;
17510;SDS011;8873;48.818;9.422;2023-07-29T07:32:51;2.53;;;2.33;;
17510;SDS011;8873;48.818;9.422;2023-07-29T07:35:19;2.47;;;2.25;;
17510;SDS011;8873;48.818;9.422;2023-07-29T07:37:47;2.33;;;2.22;;
17510;SDS011;8873;48.818;9.422;2023-07-29T07:40:21;4.18;;;2.67;;
17510;SDS011;8873;48.818;9.422;2023-07-29T07:43:04;2.95;;;2.67;;
17510;SDS011;8873;48.818;9.422;2023-07-29T07:45:41;2.75;;;2.53;;
17510;SDS011;8873;48.818;9.422;2023-07-29T07:48:08;9.25;;;2.80;;
17510;SDS011;8873;48.818;9.422;2023-07-29T07:50:39;5.20;;;3.10;;
17510;SDS011;8873;48.818;9.422;2023-07-29T07:53:07;3.60;;;3.30;;
17510;SDS011;8873;48.818;9.422;2023-07-29T07:55:35;4.32;;;2.33;;
17510;SDS011;8873;48.818;9.422;2023-07-29T07:58:04;4.38;;;2.55;;
17510;SDS011;8873;48.818;9.422;2023-07-29T08:00:32;12.02;;;8.15;;
17510;SDS011;8873;48.818;9.422;2023-07-29T08:03:00;6.97;;;4.05;;
17510;SDS011;8873;48.818;9.422;2023-07-29T08:05:35;2.45;;;2.25;;
17510;SDS011;8873;48.818;9.422;2023-07-29T08:08:03;3.33;;;2.22;;
17510;SDS011;8873;48.818;9.422;2023-07-29T08:10:30;4.72;;;3.97;;
17510;SDS011;8873;48.818;9.422;2023-07-29T08:13:04;8.50;;;3.42;;
17510;SDS011;8873;48.818;9.422;2023-07-29T08:15:35;3.20;;;2.90;;
17510;SDS011;8873;48.818;9.422;2023-07-29T08:18:02;1.90;;;1.80;;
17510;SDS011;8873;48.818;9.422;2023-07-29T08:20:30;2.60;;;2.40;;
17510;SDS011;8873;48.818;9.422;2023-07-29T08:22:58;5.47;;;2.35;;
17510;SDS011;8873;48.818;9.422;2023-07-29T08:25:26;1.90;;;1.80;;
17510;SDS011;8873;48.818;9.422;2023-07-29T08:27:55;4.22;;;1.65;;
17510;SDS011;8873;48.818;9.422;2023-07-29T08:30:25;2.30;;;2.10;;
17510;SDS011;8873;48.818;9.422;2023-07-29T08:32:54;2.00;;;1.90;;
17510;SDS011;8873;48.818;9.422;2023-07-29T08:35:21;2.83;;;2.15;;
17510;SDS011;8873;48.818;9.422;2023-07-29T08:37:49;3.17;;;1.98;;
17510;SDS011;8873;48.818;9.422;2023-07-29T08:40:17;3.53;;;2.28;;
17510;SDS011;8873;48.818;9.422;2023-07-29T08:42:46;1.95;;;1.83;;
17510;SDS011;8873;48.818;9.422;2023-07-29T08:45:15;3.83;;;2.20;;
17510;SDS011;8873;48.818;9.422;2023-07-29T08:47:46;2.28;;;2.08;;
17510;SDS011;8873;48.818;9.422;2023-07-29T08:50:14;2.30;;;2.20;;
17510;SDS011;8873;48.818;9.422;2023-07-29T08:52:42;1.90;;;1.80;;
17510;SDS011;8873;48.818;9.422;2023-07-29T08:55:10;1.98;;;1.88;;
17510;SDS011;8873;48.818;9.422;2023-07-29T08:57:38;1.40;;;1.40;;
17510;SDS011;8873;48.818;9.422;2023-07-29T09:00:06;1.58;;;1.58;;
17510;SDS011;8873;48.818;9.422;2023-07-29T09:02:36;2.60;;;2.40;;
17510;SDS011;8873;48.818;9.422;2023-07-29T09:05:07;2.80;;;1.70;;
17510;SDS011;8873;48.818;9.422;2023-07-29T09:07:35;3.38;;;1.65;;
17510;SDS011;8873;48.818;9.422;2023-07-29T09:10:04;1.73;;;1.60;;
17510;SDS011;8873;48.818;9.422;2023-07-29T09:12:32;1.92;;;1.83;;
17510;SDS011;8873;48.818;9.422;2023-07-29T09:15:00;1.77;;;1.67;;
17510;SDS011;8873;48.818;9.422;2023-07-29T09:17:30;1.90;;;1.80;;
17510;SDS011;8873;48.818;9.422;2023-07-29T09:19:58;2.45;;;1.73;;
17510;SDS011;8873;48.818;9.422;2023-07-29T09:22:27;1.60;;;1.50;;
17510;SDS011;8873;48.818;9.422;2023-07-29T09:24:56;3.13;;;2.00;;
17510;SDS011;8873;48.818;9.422;2023-07-29T09:27:24;3.03;;;1.80;;
17510;SDS011;8873;48.818;9.422;2023-07-29T09:29:53;2.15;;;2.05;;
17510;SDS011;8873;48.818;9.422;2023-07-29T09:32:21;1.67;;;1.58;;
17510;SDS011;8873;48.818;9.422;2023-07-29T09:34:50;1.98;;;1.83;;
17510;SDS011;8873;48.818;9.422;2023-07-29T09:37:17;1.70;;;1.63;;
17510;SDS011;8873;48.818;9.422;2023-07-29T09:39:49;2.33;;;1.83;;
17510;SDS011;8873;48.818;9.422;2023-07-29T09:42:17;2.35;;;1.77;;
17510;SDS011;8873;48.818;9.422;2023-07-29T09:44:45;1.90;;;1.80;;
17510;SDS011;8873;48.818;9.422;2023-07-29T09:47:19;3.08;;;1.67;;
17510;SDS011;8873;48.818;9.422;2023-07-29T09:49:48;1.80;;;1.73;;
17510;SDS011;8873;48.818;9.422;2023-07-29T09:52:16;1.50;;;1.40;;
17510;SDS011;8873;48.818;9.422;2023-07-29T09:54:44;1.88;;;1.77;;
17510;SDS011;8873;48.818;9.422;2023-07-29T09:57:14;3.22;;;1.70;;
17510;SDS011;8873;48.818;9.422;2023-07-29T09:59:44;2.00;;;1.90;;
17510;SDS011;8873;48.818;9.422;2023-07-29T10:02:20;1.70;;;1.60;;
17510;SDS011;8873;48.818;9.422;2023-07-29T10:04:48;1.95;;;1.80;;
17510;SDS011;8873;48.818;9.422;2023-07-29T10:07:16;1.58;;;1.48;;
17510;SDS011;8873;48.818;9.422;2023-07-29T10:09:45;1.50;;;1.50;;
17510;SDS011;8873;48.818;9.422;2023-07-29T10:12:12;2.03;;;1.92;;
17510;SDS011;8873;48.818;9.422;2023-07-29T10:14:45;1.70;;;1.60;;
17510;SDS011;8873;48.818;9.422;2023-07-29T10:17:15;1.88;;;1.75;;
17510;SDS011;8873;48.818;9.422;2023-07-29T10:19:43;1.80;;;1.70;;
17510;SDS011;8873;48.818;9.422;2023-07-29T10:22:11;1.80;;;1.70;;
17510;SDS011;8873;48.818;9.422;2023-07-29T10:24:40;1.70;;;1.70;;
17510;SDS011;8873;48.818;9.422;2023-07-29T10:27:08;1.92;;;1.88;;
17510;SDS011;8873;48.818;9.422;2023-07-29T10:29:38;2.50;;;1.70;;
17510;SDS011;8873;48.818;9.422;2023-07-29T10:32:07;1.67;;;1.60;;
17510;SDS011;8873;48.818;9.422;2023-07-29T10:34:35;1.58;;;1.50;;
17510;SDS011;8873;48.818;9.422;2023-07-29T10:37:03;1.85;;;1.60;;
17510;SDS011;8873;48.818;9.422;2023-07-29T10:39:37;1.20;;;1.20;;
17510;SDS011;8873;48.818;9.422;2023-07-29T10:42:05;2.08;;;1.92;;
17510;SDS011;8873;48.818;9.422;2023-07-29T10:44:45;1.92;;;1.52;;
17510;SDS011;8873;48.818;9.422;2023-07-29T10:47:17;2.35;;;1.23;;
17510;SDS011;8873;48.818;9.422;2023-07-29T10:49:46;1.67;;;1.58;;
17510;SDS011;8873;48.818;9.422;2023-07-29T10:52:14;1.33;;;1.33;;
17510;SDS011;8873;48.818;9.422;2023-07-29T10:54:43;3.80;;;1.70;;
17510;SDS011;8873;48.818;9.422;2023-07-29T10:57:13;7.80;;;1.70;;
17510;SDS011;8873;48.818;9.422;2023-07-29T10:59:43;1.63;;;1.52;;
17510;SDS011;8873;48.818;9.422;2023-07-29T11:02:22;1.65;;;1.55;;
17510;SDS011;8873;48.818;9.422;2023-07-29T11:04:55;3.97;;;1.77;;
17510;SDS011;8873;48.818;9.422;2023-07-29T11:07:24;1.60;;;1.50;;
17510;SDS011;8873;48.818;9.422;2023-07-29T11:09:58;1.60;;;1.50;;
17510;SDS011;8873;48.818;9.422;2023-07-29T11:15:18;2.50;;;1.55;;
17510;SDS011;8873;48.818;9.422;2023-07-29T11:17:48;1.30;;;1.30;;
17510;SDS011;8873;48.818;9.422;2023-07-29T11:20:16;1.55;;;1.55;;
17510;SDS011;8873;48.818;9.422;2023-07-29T11:22:45;2.58;;;1.23;;
17510;SDS011;8873;48.818;9.422;2023-07-29T11:25:13;2.95;;;1.40;;
17510;SDS011;8873;48.818;9.422;2023-07-29T11:27:40;1.58;;;1.48;;
17510;SDS011;8873;48.818;9.422;2023-07-29T11:30:09;1.30;;;1.30;;
17510;SDS011;8873;48.818;9.422;2023-07-29T11:32:37;1.55;;;1.45;;
17510;SDS011;8873;48.818;9.422;2023-07-29T11:35:07;1.17;;;1.17;;
17510;SDS011;8873;48.818;9.422;2023-07-29T11:37:36;1.08;;;1.08;;
17510;SDS011;8873;48.818;9.422;2023-07-29T11:40:04;2.72;;;1.25;;
17510;SDS011;8873;48.818;9.422;2023-07-29T11:42:33;1.30;;;1.30;;
17510;SDS011;8873;48.818;9.422;2023-07-29T11:45:01;1.30;;;1.30;;
17510;SDS011;8873;48.818;9.422;2023-07-29T11:47:31;3.10;;;1.50;;
17510;SDS011;8873;48.818;9.422;2023-07-29T11:50:02;1.40;;;1.40;;
17510;SDS011;8873;48.818;9.422;2023-07-29T11:52:32;1.48;;;1.30;;
17510;SDS011;8873;48.818;9.422;2023-07-29T11:55:00;1.58;;;1.48;;
17510;SDS011;8873;48.818;9.422;2023-07-29T11:57:28;1.75;;;1.65;;
17510;SDS011;8873;48.818;9.422;2023-07-29T11:59:55;1.23;;;1.23;;
17510;SDS011;8873;48.818;9.422;2023-07-29T12:02:23;1.42;;;1.40;;
17510;SDS011;8873;48.818;9.422;2023-07-29T12:04:52;2.10;;;1.30;;
17510;SDS011;8873;48.818;9.422;2023-07-29T12:07:19;1.20;;;1.20;;
17510;SDS011;8873;48.818;9.422;2023-07-29T12:09:49;1.20;;;1.20;;
17510;SDS011;8873;48.818;9.422;2023-07-29T12:12:17;1.35;;;1.30;;
17510;SDS011;8873;48.818;9.422;2023-07-29T12:14:45;1.70;;;1.60;;
17510;SDS011;8873;48.818;9.422;2023-07-29T12:17:13;1.20;;;1.20;;
17510;SDS011;8873;48.818;9.422;2023-07-29T12:19:42;1.20;;;1.20;;
17510;SDS011;8873;48.818;9.422;2023-07-29T12:22:10;3.28;;;1.40;;
17510;SDS011;8873;48.818;9.422;2023-07-29T12:24:38;2.08;;;1.98;;
17510;SDS011;8873;48.818;9.422;2023-07-29T12:27:11;1.50;;;1.40;;
17510;SDS011;8873;48.818;9.422;2023-07-29T12:29:39;1.75;;;1.50;;
17510;SDS011;8873;48.818;9.422;2023-07-29T12:32:07;1.75;;;1.65;;
17510;SDS011;8873;48.818;9.422;2023-07-29T12:34:35;2.20;;;1.42;;
17510;SDS011;8873;48.818;9.422;2023-07-29T12:37:04;1.40;;;1.30;;
17510;SDS011;8873;48.818;9.422;2023-07-29T12:39:33;2.22;;;1.50;;
17510;SDS011;8873;48.818;9.422;2023-07-29T12:42:01;1.80;;;1.70;;
17510;SDS011;8873;48.818;9.422;2023-07-29T12:44:31;1.60;;;1.60;;
17510;SDS011;8873;48.818;9.422;2023-07-29T12:46:59;1.70;;;1.60;;
17510;SDS011;8873;48.818;9.422;2023-07-29T12:49:27;1.70;;;1.60;;
17510;SDS011;8873;48.818;9.422;2023-07-29T12:51:55;1.50;;;1.40;;
17510;SDS011;8873;48.818;9.422;2023-07-29T12:54:23;1.60;;;1.50;;
17510;SDS011;8873;48.818;9.422;2023-07-29T12:56:51;1.65;;;1.60;;
17510;SDS011;8873;48.818;9.422;2023-07-29T12:59:18;1.48;;;1.48;;
17510;SDS011;8873;48.818;9.422;2023-07-29T13:01:47;1.50;;;1.40;;
17510;SDS011;8873;48.818;9.422;2023-07-29T13:07:27;2.15;;;1.70;;
17510;SDS011;8873;48.818;9.422;2023-07-29T13:09:55;1.70;;;1.60;;
17510;SDS011;8873;48.818;9.422;2023-07-29T13:12:22;2.05;;;1.95;;
17510;SDS011;8873;48.818;9.422;2023-07-29T13:14:50;3.03;;;1.65;;
17510;SDS011;8873;48.818;9.422;2023-07-29T13:17:20;2.60;;;1.77;;
17510;SDS011;8873;48.818;9.422;2023-07-29T13:19:48;2.08;;;1.98;;
17510;SDS011;8873;48.818;9.422;2023-07-29T13:22:16;1.60;;;1.60;;
17510;SDS011;8873;48.818;9.422;2023-07-29T13:24:44;4.60;;;2.10;;
17510;SDS011;8873;48.818;9.422;2023-07-29T13:27:11;3.85;;;1.80;;
17510;SDS011;8873;48.818;9.422;2023-07-29T13:29:39;1.80;;;1.70;;
17510;SDS011;8873;48.818;9.422;2023-07-29T13:32:07;3.97;;;1.75;;
17510;SDS011;8873;48.818;9.422;2023-07-29T13:34:36;1.60;;;1.60;;
17510;SDS011;8873;48.818;9.422;2023-07-29T13:37:06;2.00;;;1.90;;
17510;SDS011;8873;48.818;9.422;2023-07-29T13:39:34;2.58;;;1.73;;
17510;SDS011;8873;48.818;9.422;2023-07-29T13:42:01;1.73;;;1.50;;
17510;SDS011;8873;48.818;9.422;2023-07-29T13:44:29;1.92;;;1.83;;
17510;SDS011;8873;48.818;9.422;2023-07-29T13:46:57;2.70;;;1.58;;
17510;SDS011;8873;48.818;9.422;2023-07-29T13:49:24;2.10;;;2.00;;
17510;SDS011;8873;48.818;9.422;2023-07-29T13:51:53;2.38;;;1.77;;
17510;SDS011;8873;48.818;9.422;2023-07-29T13:54:21;1.80;;;1.70;;
17510;SDS011;8873;48.818;9.422;2023-07-29T13:56:48;1.95;;;1.85;;
17510;SDS011;8873;48.818;9.422;2023-07-29T13:59:16;1.80;;;1.70;;
17510;SDS011;8873;48.818;9.422;2023-07-29T14:01:44;2.92;;;1.88;;
17510;SDS011;8873;48.818;9.422;2023-07-29T14:04:12;2.10;;;1.90;;
17510;SDS011;8873;48.818;9.422;2023-07-29T14:06:41;1.90;;;1.80;;
17510;SDS011;8873;48.818;9.422;2023-07-29T14:09:13;2.03;;;1.85;;
17510;SDS011;8873;48.818;9.422;2023-07-29T14:11:41;2.17;;;2.08;;
17510;SDS011;8873;48.818;9.422;2023-07-29T14:14:09;2.00;;;1.90;;
17510;SDS011;8873;48.818;9.422;2023-07-29T14:16:36;1.67;;;1.60;;
17510;SDS011;8873;48.818;9.422;2023-07-29T14:19:06;2.65;;;1.60;;
17510;SDS011;8873;48.818;9.422;2023-07-29T14:21:33;1.90;;;1.80;;
17510;SDS011;8873;48.818;9.422;2023-07-29T14:24:01;2.60;;;1.98;;
17510;SDS011;8873;48.818;9.422;2023-07-29T14:26:30;1.88;;;1.77;;
17510;SDS011;8873;48.818;9.422;2023-07-29T14:28:58;1.88;;;1.77;;
17510;SDS011;8873;48.818;9.422;2023-07-29T14:31:26;2.22;;;2.13;;
17510;SDS011;8873;48.818;9.422;2023-07-29T14:33:53;2.17;;;2.03;;
17510;SDS011;8873;48.818;9.422;2023-07-29T14:36:22;1.85;;;1.70;;
17510;SDS011;8873;48.818;9.422;2023-07-29T14:38:51;1.90;;;1.73;;
17510;SDS011;8873;48.818;9.422;2023-07-29T14:41:19;1.60;;;1.50;;
17510;SDS011;8873;48.818;9.422;2023-07-29T14:43:48;1.77;;;1.67;;
17510;SDS011;8873;48.818;9.422;2023-07-29T14:46:16;2.75;;;1.60;;
17510;SDS011;8873;48.818;9.422;2023-07-29T14:48:43;1.88;;;1.77;;
17510;SDS011;8873;48.818;9.422;2023-07-29T14:51:11;1.88;;;1.77;;
17510;SDS011;8873;48.818;9.422;2023-07-29T14:53:39;1.90;;;1.80;;
17510;SDS011;8873;48.818;9.422;2023-07-29T14:56:06;2.15;;;2.03;;
17510;SDS011;8873;48.818;9.422;2023-07-29T14:58:34;2.30;;;2.10;;
17510;SDS011;8873;48.818;9.422;2023-07-29T15:01:03;2.00;;;1.90;;
17510;SDS011;8873;48.818;9.422;2023-07-29T15:03:31;2.15;;;1.88;;
17510;SDS011;8873;48.818;9.422;2023-07-29T15:05:59;1.85;;;1.75;;
17510;SDS011;8873;48.818;9.422;2023-07-29T15:08:27;2.00;;;1.90;;
17510;SDS011;8873;48.818;9.422;2023-07-29T15:10:54;1.85;;;1.75;;
17510;SDS011;8873;48.818;9.422;2023-07-29T15:13:22;1.90;;;1.80;;